sensor_id;sensor_type;location;lat;lon;timestamp;P1;durP1;ratioP1;P2;durP2;ratioP2
3597;SDS011;1813;52.016;8.714;2023-09-19T00:00:06;5.73;;;3.30;;
3597;SDS011;1813;52.016;8.714;2023-09-19T00:02:43;7.77;;;3.67;;
3597;SDS011;1813;52.016;8.714;2023-09-19T00:05:17;6.93;;;3.53;;
3597;SDS011;1813;52.016;8.714;2023-09-19T00:07:54;3.60;;;3.30;;
3597;SDS011;1813;52.016;8.714;2023-09-19T00:10:29;5.53;;;4.00;;
3597;SDS011;1813;52.016;8.714;2023-09-19T00:13:08;4.90;;;3.77;;
3597;SDS011;1813;52.016;8.714;2023-09-19T00:15:44;5.53;;;3.53;;
3597;SDS011;1813;52.016;8.714;2023-09-19T00:18:21;4.20;;;3.50;;
3597;SDS011;1813;52.016;8.714;2023-09-19T00:20:58;6.97;;;3.70;;
3597;SDS011;1813;52.016;8.714;2023-09-19T00:23:35;7.77;;;3.73;;
3597;SDS011;1813;52.016;8.714;2023-09-19T00:26:08;9.07;;;4.00;;
3597;SDS011;1813;52.016;8.714;2023-09-19T00:28:46;5.20;;;3.80;;
3597;SDS011;1813;52.016;8.714;2023-09-19T00:31:20;6.53;;;3.90;;
3597;SDS011;1813;52.016;8.714;2023-09-19T00:33:55;4.90;;;3.93;;
3597;SDS011;1813;52.016;8.714;2023-09-19T00:36:40;6.70;;;4.07;;
3597;SDS011;1813;52.016;8.714;2023-09-19T00:39:14;6.53;;;4.30;;
3597;SDS011;1813;52.016;8.714;2023-09-19T00:41:50;13.53;;;4.07;;
3597;SDS011;1813;52.016;8.714;2023-09-19T00:44:27;8.13;;;4.00;;
3597;SDS011;1813;52.016;8.714;2023-09-19T00:47:01;7.30;;;3.87;;
3597;SDS011;1813;52.016;8.714;2023-09-19T00:49:35;7.30;;;4.20;;
3597;SDS011;1813;52.016;8.714;2023-09-19T00:52:09;10.70;;;4.17;;
3597;SDS011;1813;52.016;8.714;2023-09-19T00:54:44;8.43;;;4.50;;
3597;SDS011;1813;52.016;8.714;2023-09-19T00:57:19;5.43;;;4.23;;
3597;SDS011;1813;52.016;8.714;2023-09-19T00:59:55;7.50;;;4.27;;
3597;SDS011;1813;52.016;8.714;2023-09-19T01:02:31;10.43;;;4.90;;
3597;SDS011;1813;52.016;8.714;2023-09-19T01:05:05;8.03;;;4.90;;
3597;SDS011;1813;52.016;8.714;2023-09-19T01:07:39;8.23;;;4.70;;
3597;SDS011;1813;52.016;8.714;2023-09-19T01:10:16;11.43;;;5.77;;
3597;SDS011;1813;52.016;8.714;2023-09-19T01:12:54;9.40;;;4.80;;
3597;SDS011;1813;52.016;8.714;2023-09-19T01:15:43;9.47;;;5.47;;
3597;SDS011;1813;52.016;8.714;2023-09-19T01:18:27;10.13;;;5.93;;
3597;SDS011;1813;52.016;8.714;2023-09-19T01:21:15;6.90;;;5.17;;
3597;SDS011;1813;52.016;8.714;2023-09-19T01:24:05;14.13;;;5.70;;
3597;SDS011;1813;52.016;8.714;2023-09-19T01:27:06;15.40;;;6.30;;
3597;SDS011;1813;52.016;8.714;2023-09-19T01:30:08;10.50;;;6.00;;
3597;SDS011;1813;52.016;8.714;2023-09-19T01:32:43;12.53;;;6.40;;
3597;SDS011;1813;52.016;8.714;2023-09-19T01:35:16;9.93;;;6.23;;
3597;SDS011;1813;52.016;8.714;2023-09-19T01:37:51;14.10;;;6.37;;
3597;SDS011;1813;52.016;8.714;2023-09-19T01:40:25;13.20;;;6.23;;
3597;SDS011;1813;52.016;8.714;2023-09-19T01:43:03;9.00;;;5.57;;
3597;SDS011;1813;52.016;8.714;2023-09-19T01:45:50;10.47;;;5.53;;
3597;SDS011;1813;52.016;8.714;2023-09-19T01:48:33;13.73;;;6.00;;
3597;SDS011;1813;52.016;8.714;2023-09-19T01:51:13;14.47;;;6.57;;
3597;SDS011;1813;52.016;8.714;2023-09-19T01:53:53;11.07;;;6.03;;
3597;SDS011;1813;52.016;8.714;2023-09-19T01:56:36;16.00;;;6.47;;
3597;SDS011;1813;52.016;8.714;2023-09-19T01:59:17;10.73;;;6.90;;
3597;SDS011;1813;52.016;8.714;2023-09-19T02:02:00;12.63;;;6.87;;
3597;SDS011;1813;52.016;8.714;2023-09-19T02:04:35;13.07;;;6.67;;
3597;SDS011;1813;52.016;8.714;2023-09-19T02:07:09;17.70;;;7.30;;
3597;SDS011;1813;52.016;8.714;2023-09-19T02:09:46;14.30;;;7.03;;
3597;SDS011;1813;52.016;8.714;2023-09-19T02:12:20;11.60;;;7.47;;
3597;SDS011;1813;52.016;8.714;2023-09-19T02:14:54;12.30;;;7.43;;
3597;SDS011;1813;52.016;8.714;2023-09-19T02:17:30;22.00;;;7.83;;
3597;SDS011;1813;52.016;8.714;2023-09-19T02:20:04;15.53;;;7.40;;
3597;SDS011;1813;52.016;8.714;2023-09-19T02:22:45;12.53;;;6.80;;
3597;SDS011;1813;52.016;8.714;2023-09-19T02:25:20;15.73;;;7.57;;
3597;SDS011;1813;52.016;8.714;2023-09-19T02:27:54;16.60;;;7.67;;
3597;SDS011;1813;52.016;8.714;2023-09-19T02:30:29;14.67;;;7.47;;
3597;SDS011;1813;52.016;8.714;2023-09-19T02:33:06;12.43;;;7.47;;
3597;SDS011;1813;52.016;8.714;2023-09-19T02:35:39;16.10;;;7.57;;
3597;SDS011;1813;52.016;8.714;2023-09-19T02:38:13;17.20;;;7.20;;
3597;SDS011;1813;52.016;8.714;2023-09-19T02:40:51;14.53;;;7.00;;
3597;SDS011;1813;52.016;8.714;2023-09-19T02:43:25;9.73;;;5.40;;
3597;SDS011;1813;52.016;8.714;2023-09-19T02:45:59;13.53;;;5.80;;
3597;SDS011;1813;52.016;8.714;2023-09-19T02:48:36;9.70;;;4.87;;
3597;SDS011;1813;52.016;8.714;2023-09-19T02:51:10;16.37;;;5.50;;
3597;SDS011;1813;52.016;8.714;2023-09-19T02:53:44;13.53;;;5.23;;
3597;SDS011;1813;52.016;8.714;2023-09-19T02:56:18;16.80;;;4.70;;
3597;SDS011;1813;52.016;8.714;2023-09-19T02:58:53;17.77;;;4.80;;
3597;SDS011;1813;52.016;8.714;2023-09-19T03:01:26;15.03;;;5.00;;
3597;SDS011;1813;52.016;8.714;2023-09-19T03:04:04;15.77;;;5.23;;
3597;SDS011;1813;52.016;8.714;2023-09-19T03:06:39;21.20;;;5.90;;
3597;SDS011;1813;52.016;8.714;2023-09-19T03:09:15;17.33;;;5.53;;
3597;SDS011;1813;52.016;8.714;2023-09-19T03:11:49;10.53;;;5.27;;
3597;SDS011;1813;52.016;8.714;2023-09-19T03:14:25;17.47;;;5.43;;
3597;SDS011;1813;52.016;8.714;2023-09-19T03:17:02;15.33;;;5.60;;
3597;SDS011;1813;52.016;8.714;2023-09-19T03:19:41;14.00;;;6.10;;
3597;SDS011;1813;52.016;8.714;2023-09-19T03:22:16;18.30;;;5.80;;
3597;SDS011;1813;52.016;8.714;2023-09-19T03:24:51;19.33;;;5.80;;
3597;SDS011;1813;52.016;8.714;2023-09-19T03:27:26;15.10;;;5.60;;
3597;SDS011;1813;52.016;8.714;2023-09-19T03:29:57;17.77;;;5.83;;
3597;SDS011;1813;52.016;8.714;2023-09-19T03:32:32;20.77;;;5.90;;
3597;SDS011;1813;52.016;8.714;2023-09-19T03:35:09;19.07;;;5.70;;
3597;SDS011;1813;52.016;8.714;2023-09-19T03:37:44;15.60;;;5.93;;
3597;SDS011;1813;52.016;8.714;2023-09-19T03:40:19;18.27;;;6.10;;
3597;SDS011;1813;52.016;8.714;2023-09-19T03:42:54;14.10;;;6.27;;
3597;SDS011;1813;52.016;8.714;2023-09-19T03:45:28;12.40;;;5.47;;
3597;SDS011;1813;52.016;8.714;2023-09-19T03:48:07;14.27;;;5.73;;
3597;SDS011;1813;52.016;8.714;2023-09-19T03:50:44;19.67;;;4.97;;
3597;SDS011;1813;52.016;8.714;2023-09-19T03:53:19;12.40;;;4.80;;
3597;SDS011;1813;52.016;8.714;2023-09-19T03:55:53;17.07;;;5.77;;
3597;SDS011;1813;52.016;8.714;2023-09-19T03:58:27;13.10;;;5.23;;
3597;SDS011;1813;52.016;8.714;2023-09-19T04:01:01;13.93;;;5.30;;
3597;SDS011;1813;52.016;8.714;2023-09-19T04:03:35;23.17;;;5.90;;
3597;SDS011;1813;52.016;8.714;2023-09-19T04:06:19;19.10;;;5.10;;
3597;SDS011;1813;52.016;8.714;2023-09-19T04:08:53;12.30;;;5.03;;
3597;SDS011;1813;52.016;8.714;2023-09-19T04:11:27;15.70;;;4.70;;
3597;SDS011;1813;52.016;8.714;2023-09-19T04:14:02;20.60;;;4.50;;
3597;SDS011;1813;52.016;8.714;2023-09-19T04:16:37;19.83;;;4.57;;
3597;SDS011;1813;52.016;8.714;2023-09-19T04:19:11;11.10;;;4.33;;
3597;SDS011;1813;52.016;8.714;2023-09-19T04:21:48;12.87;;;4.20;;
3597;SDS011;1813;52.016;8.714;2023-09-19T04:24:22;15.47;;;4.70;;
3597;SDS011;1813;52.016;8.714;2023-09-19T04:26:55;12.20;;;4.03;;
3597;SDS011;1813;52.016;8.714;2023-09-19T04:29:29;16.33;;;4.00;;
3597;SDS011;1813;52.016;8.714;2023-09-19T04:32:04;17.90;;;4.10;;
3597;SDS011;1813;52.016;8.714;2023-09-19T04:34:37;9.53;;;3.10;;
3597;SDS011;1813;52.016;8.714;2023-09-19T04:37:14;13.30;;;4.10;;
3597;SDS011;1813;52.016;8.714;2023-09-19T04:39:48;27.23;;;3.97;;
3597;SDS011;1813;52.016;8.714;2023-09-19T04:42:21;12.43;;;3.80;;
3597;SDS011;1813;52.016;8.714;2023-09-19T04:44:55;20.73;;;4.30;;
3597;SDS011;1813;52.016;8.714;2023-09-19T04:47:30;15.70;;;3.43;;
3597;SDS011;1813;52.016;8.714;2023-09-19T04:50:08;8.47;;;3.43;;
3597;SDS011;1813;52.016;8.714;2023-09-19T04:52:48;9.03;;;3.73;;
3597;SDS011;1813;52.016;8.714;2023-09-19T04:55:24;12.37;;;3.63;;
3597;SDS011;1813;52.016;8.714;2023-09-19T04:57:57;13.27;;;3.30;;
3597;SDS011;1813;52.016;8.714;2023-09-19T05:00:32;14.97;;;3.40;;
3597;SDS011;1813;52.016;8.714;2023-09-19T05:03:06;12.30;;;3.57;;
3597;SDS011;1813;52.016;8.714;2023-09-19T05:05:40;24.40;;;4.20;;
3597;SDS011;1813;52.016;8.714;2023-09-19T05:08:17;12.47;;;3.80;;
3597;SDS011;1813;52.016;8.714;2023-09-19T05:10:52;17.80;;;4.20;;
3597;SDS011;1813;52.016;8.714;2023-09-19T05:13:26;11.97;;;3.80;;
3597;SDS011;1813;52.016;8.714;2023-09-19T05:16:01;12.80;;;4.00;;
3597;SDS011;1813;52.016;8.714;2023-09-19T05:18:35;23.03;;;3.77;;
3597;SDS011;1813;52.016;8.714;2023-09-19T05:21:09;14.07;;;3.37;;
3597;SDS011;1813;52.016;8.714;2023-09-19T05:23:46;17.30;;;4.10;;
3597;SDS011;1813;52.016;8.714;2023-09-19T05:26:20;15.43;;;4.50;;
3597;SDS011;1813;52.016;8.714;2023-09-19T05:28:54;15.80;;;3.63;;
3597;SDS011;1813;52.016;8.714;2023-09-19T05:31:27;9.80;;;3.20;;
3597;SDS011;1813;52.016;8.714;2023-09-19T05:34:01;15.37;;;4.00;;
3597;SDS011;1813;52.016;8.714;2023-09-19T05:36:35;20.77;;;4.00;;
3597;SDS011;1813;52.016;8.714;2023-09-19T05:39:12;12.70;;;3.50;;
3597;SDS011;1813;52.016;8.714;2023-09-19T05:41:46;12.67;;;3.40;;
3597;SDS011;1813;52.016;8.714;2023-09-19T05:44:20;12.50;;;3.47;;
3597;SDS011;1813;52.016;8.714;2023-09-19T05:46:54;15.33;;;4.37;;
3597;SDS011;1813;52.016;8.714;2023-09-19T05:49:28;16.00;;;3.83;;
3597;SDS011;1813;52.016;8.714;2023-09-19T05:52:02;17.23;;;3.77;;
3597;SDS011;1813;52.016;8.714;2023-09-19T05:54:39;14.90;;;3.83;;
3597;SDS011;1813;52.016;8.714;2023-09-19T05:57:13;14.27;;;3.90;;
3597;SDS011;1813;52.016;8.714;2023-09-19T05:59:47;17.03;;;3.83;;
3597;SDS011;1813;52.016;8.714;2023-09-19T06:02:21;16.43;;;3.50;;
3597;SDS011;1813;52.016;8.714;2023-09-19T06:04:57;20.10;;;3.67;;
3597;SDS011;1813;52.016;8.714;2023-09-19T06:07:31;18.80;;;3.87;;
3597;SDS011;1813;52.016;8.714;2023-09-19T06:10:10;13.80;;;3.73;;
3597;SDS011;1813;52.016;8.714;2023-09-19T06:12:45;16.40;;;3.63;;
3597;SDS011;1813;52.016;8.714;2023-09-19T06:15:18;11.40;;;3.30;;
3597;SDS011;1813;52.016;8.714;2023-09-19T06:17:55;9.53;;;3.13;;
3597;SDS011;1813;52.016;8.714;2023-09-19T06:20:29;11.73;;;3.50;;
3597;SDS011;1813;52.016;8.714;2023-09-19T06:23:04;19.70;;;3.50;;
3597;SDS011;1813;52.016;8.714;2023-09-19T06:25:40;14.23;;;3.60;;
3597;SDS011;1813;52.016;8.714;2023-09-19T06:28:14;11.47;;;3.40;;
3597;SDS011;1813;52.016;8.714;2023-09-19T06:30:53;14.00;;;3.63;;
3597;SDS011;1813;52.016;8.714;2023-09-19T06:33:27;12.70;;;3.50;;
3597;SDS011;1813;52.016;8.714;2023-09-19T06:36:02;17.93;;;3.80;;
3597;SDS011;1813;52.016;8.714;2023-09-19T06:38:36;12.87;;;3.50;;
3597;SDS011;1813;52.016;8.714;2023-09-19T06:41:14;9.17;;;2.83;;
3597;SDS011;1813;52.016;8.714;2023-09-19T06:43:47;14.07;;;3.20;;
3597;SDS011;1813;52.016;8.714;2023-09-19T06:46:23;12.40;;;3.33;;
3597;SDS011;1813;52.016;8.714;2023-09-19T06:49:03;7.50;;;2.77;;
3597;SDS011;1813;52.016;8.714;2023-09-19T06:51:37;11.37;;;3.30;;
3597;SDS011;1813;52.016;8.714;2023-09-19T06:54:12;11.17;;;3.40;;
3597;SDS011;1813;52.016;8.714;2023-09-19T06:56:50;13.60;;;3.77;;
3597;SDS011;1813;52.016;8.714;2023-09-19T06:59:25;12.30;;;3.30;;
3597;SDS011;1813;52.016;8.714;2023-09-19T07:01:59;11.23;;;2.90;;
3597;SDS011;1813;52.016;8.714;2023-09-19T07:04:33;10.67;;;3.60;;
3597;SDS011;1813;52.016;8.714;2023-09-19T07:07:06;12.27;;;3.00;;
3597;SDS011;1813;52.016;8.714;2023-09-19T07:09:43;11.73;;;3.03;;
3597;SDS011;1813;52.016;8.714;2023-09-19T07:12:22;10.40;;;3.37;;
3597;SDS011;1813;52.016;8.714;2023-09-19T07:14:55;11.80;;;3.10;;
3597;SDS011;1813;52.016;8.714;2023-09-19T07:17:29;12.40;;;3.50;;
3597;SDS011;1813;52.016;8.714;2023-09-19T07:20:03;14.80;;;3.23;;
3597;SDS011;1813;52.016;8.714;2023-09-19T07:22:40;11.27;;;3.07;;
3597;SDS011;1813;52.016;8.714;2023-09-19T07:25:14;13.60;;;3.70;;
3597;SDS011;1813;52.016;8.714;2023-09-19T07:27:51;15.80;;;3.30;;
3597;SDS011;1813;52.016;8.714;2023-09-19T07:30:25;17.60;;;3.37;;
3597;SDS011;1813;52.016;8.714;2023-09-19T07:32:59;13.40;;;3.57;;
3597;SDS011;1813;52.016;8.714;2023-09-19T07:35:33;9.33;;;2.93;;
3597;SDS011;1813;52.016;8.714;2023-09-19T07:38:07;13.00;;;3.53;;
3597;SDS011;1813;52.016;8.714;2023-09-19T07:40:41;9.93;;;3.10;;
3597;SDS011;1813;52.016;8.714;2023-09-19T07:43:18;13.03;;;2.93;;
3597;SDS011;1813;52.016;8.714;2023-09-19T07:45:52;17.47;;;3.90;;
3597;SDS011;1813;52.016;8.714;2023-09-19T07:48:26;12.23;;;3.30;;
3597;SDS011;1813;52.016;8.714;2023-09-19T07:51:01;9.47;;;2.70;;
3597;SDS011;1813;52.016;8.714;2023-09-19T07:53:37;8.37;;;2.70;;
3597;SDS011;1813;52.016;8.714;2023-09-19T07:56:12;13.63;;;3.20;;
3597;SDS011;1813;52.016;8.714;2023-09-19T07:58:50;11.43;;;3.63;;
3597;SDS011;1813;52.016;8.714;2023-09-19T08:01:23;12.80;;;3.37;;
3597;SDS011;1813;52.016;8.714;2023-09-19T08:03:57;9.93;;;3.07;;
3597;SDS011;1813;52.016;8.714;2023-09-19T08:06:31;16.90;;;3.50;;
3597;SDS011;1813;52.016;8.714;2023-09-19T08:09:05;10.43;;;2.87;;
3597;SDS011;1813;52.016;8.714;2023-09-19T08:11:41;10.30;;;3.23;;
3597;SDS011;1813;52.016;8.714;2023-09-19T08:14:18;10.80;;;3.00;;
3597;SDS011;1813;52.016;8.714;2023-09-19T08:16:55;10.83;;;3.43;;
3597;SDS011;1813;52.016;8.714;2023-09-19T08:19:30;14.07;;;3.10;;
3597;SDS011;1813;52.016;8.714;2023-09-19T08:22:04;13.77;;;3.47;;
3597;SDS011;1813;52.016;8.714;2023-09-19T08:24:40;8.40;;;3.00;;
3597;SDS011;1813;52.016;8.714;2023-09-19T08:27:14;11.43;;;3.10;;
3597;SDS011;1813;52.016;8.714;2023-09-19T08:29:52;10.80;;;3.10;;
3597;SDS011;1813;52.016;8.714;2023-09-19T08:32:26;7.63;;;3.03;;
3597;SDS011;1813;52.016;8.714;2023-09-19T08:34:59;14.80;;;3.30;;
3597;SDS011;1813;52.016;8.714;2023-09-19T08:37:34;8.40;;;3.07;;
3597;SDS011;1813;52.016;8.714;2023-09-19T08:40:09;10.50;;;3.40;;
3597;SDS011;1813;52.016;8.714;2023-09-19T08:42:49;12.43;;;2.93;;
3597;SDS011;1813;52.016;8.714;2023-09-19T08:45:26;12.30;;;2.90;;
3597;SDS011;1813;52.016;8.714;2023-09-19T08:48:03;11.17;;;3.63;;
3597;SDS011;1813;52.016;8.714;2023-09-19T08:50:48;12.93;;;3.30;;
3597;SDS011;1813;52.016;8.714;2023-09-19T08:53:30;15.20;;;3.47;;
3597;SDS011;1813;52.016;8.714;2023-09-19T08:56:08;7.63;;;2.97;;
3597;SDS011;1813;52.016;8.714;2023-09-19T08:58:45;9.73;;;3.00;;
3597;SDS011;1813;52.016;8.714;2023-09-19T09:01:26;8.60;;;2.77;;
3597;SDS011;1813;52.016;8.714;2023-09-19T09:04:02;12.73;;;3.30;;
3597;SDS011;1813;52.016;8.714;2023-09-19T09:06:39;12.50;;;3.20;;
3597;SDS011;1813;52.016;8.714;2023-09-19T09:09:15;9.20;;;2.80;;
3597;SDS011;1813;52.016;8.714;2023-09-19T09:11:49;10.90;;;3.50;;
3597;SDS011;1813;52.016;8.714;2023-09-19T09:14:24;6.80;;;3.13;;
3597;SDS011;1813;52.016;8.714;2023-09-19T09:17:00;14.57;;;3.30;;
3597;SDS011;1813;52.016;8.714;2023-09-19T09:19:34;12.13;;;3.53;;
3597;SDS011;1813;52.016;8.714;2023-09-19T09:22:08;10.90;;;3.40;;
3597;SDS011;1813;52.016;8.714;2023-09-19T09:24:50;9.23;;;3.23;;
3597;SDS011;1813;52.016;8.714;2023-09-19T09:27:27;11.30;;;3.13;;
3597;SDS011;1813;52.016;8.714;2023-09-19T09:30:02;12.50;;;3.47;;
3597;SDS011;1813;52.016;8.714;2023-09-19T09:32:40;8.00;;;3.30;;
3597;SDS011;1813;52.016;8.714;2023-09-19T09:35:14;9.80;;;2.70;;
3597;SDS011;1813;52.016;8.714;2023-09-19T09:37:58;12.23;;;3.93;;
3597;SDS011;1813;52.016;8.714;2023-09-19T09:40:45;17.73;;;3.07;;
3597;SDS011;1813;52.016;8.714;2023-09-19T09:43:26;9.10;;;3.00;;
3597;SDS011;1813;52.016;8.714;2023-09-19T09:46:12;15.67;;;3.70;;
3597;SDS011;1813;52.016;8.714;2023-09-19T09:49:03;11.20;;;3.27;;
3597;SDS011;1813;52.016;8.714;2023-09-19T09:52:00;14.43;;;3.27;;
3597;SDS011;1813;52.016;8.714;2023-09-19T09:54:36;8.57;;;3.50;;
3597;SDS011;1813;52.016;8.714;2023-09-19T09:57:12;11.07;;;3.00;;
3597;SDS011;1813;52.016;8.714;2023-09-19T09:59:51;11.97;;;4.00;;
3597;SDS011;1813;52.016;8.714;2023-09-19T10:02:29;10.83;;;3.30;;
3597;SDS011;1813;52.016;8.714;2023-09-19T10:05:13;15.93;;;3.70;;
3597;SDS011;1813;52.016;8.714;2023-09-19T10:07:51;15.00;;;3.60;;
3597;SDS011;1813;52.016;8.714;2023-09-19T10:10:31;9.60;;;3.23;;
3597;SDS011;1813;52.016;8.714;2023-09-19T10:13:24;12.47;;;3.63;;
3597;SDS011;1813;52.016;8.714;2023-09-19T10:16:01;7.70;;;3.00;;
3597;SDS011;1813;52.016;8.714;2023-09-19T10:18:45;20.10;;;3.30;;
3597;SDS011;1813;52.016;8.714;2023-09-19T10:21:25;9.80;;;3.20;;
3597;SDS011;1813;52.016;8.714;2023-09-19T10:24:00;16.07;;;4.20;;
3597;SDS011;1813;52.016;8.714;2023-09-19T10:26:39;13.20;;;3.40;;
3597;SDS011;1813;52.016;8.714;2023-09-19T10:29:13;7.03;;;2.90;;
3597;SDS011;1813;52.016;8.714;2023-09-19T10:31:49;9.30;;;3.17;;
3597;SDS011;1813;52.016;8.714;2023-09-19T10:34:26;10.23;;;3.20;;
3597;SDS011;1813;52.016;8.714;2023-09-19T10:37:03;7.53;;;3.17;;
3597;SDS011;1813;52.016;8.714;2023-09-19T10:39:39;12.87;;;3.10;;
3597;SDS011;1813;52.016;8.714;2023-09-19T10:42:14;7.70;;;3.17;;
3597;SDS011;1813;52.016;8.714;2023-09-19T10:44:52;8.50;;;2.90;;
3597;SDS011;1813;52.016;8.714;2023-09-19T10:47:30;8.20;;;3.20;;
3597;SDS011;1813;52.016;8.714;2023-09-19T10:50:05;14.83;;;3.20;;
3597;SDS011;1813;52.016;8.714;2023-09-19T10:52:46;11.57;;;3.00;;
3597;SDS011;1813;52.016;8.714;2023-09-19T10:55:20;12.90;;;3.10;;
3597;SDS011;1813;52.016;8.714;2023-09-19T10:57:55;12.50;;;3.33;;
3597;SDS011;1813;52.016;8.714;2023-09-19T11:00:50;14.40;;;3.30;;
3597;SDS011;1813;52.016;8.714;2023-09-19T11:03:26;16.63;;;3.63;;
3597;SDS011;1813;52.016;8.714;2023-09-19T11:06:07;13.30;;;3.30;;
3597;SDS011;1813;52.016;8.714;2023-09-19T11:09:00;10.33;;;3.77;;
3597;SDS011;1813;52.016;8.714;2023-09-19T11:11:50;8.33;;;2.83;;
3597;SDS011;1813;52.016;8.714;2023-09-19T11:14:30;13.03;;;3.43;;
3597;SDS011;1813;52.016;8.714;2023-09-19T11:20:23;17.10;;;3.63;;
3597;SDS011;1813;52.016;8.714;2023-09-19T11:23:22;8.43;;;3.53;;
3597;SDS011;1813;52.016;8.714;2023-09-19T11:25:59;12.40;;;3.40;;
3597;SDS011;1813;52.016;8.714;2023-09-19T11:28:35;8.93;;;3.20;;
3597;SDS011;1813;52.016;8.714;2023-09-19T11:40:44;14.07;;;3.43;;
3597;SDS011;1813;52.016;8.714;2023-09-19T11:43:31;10.33;;;3.27;;
3597;SDS011;1813;52.016;8.714;2023-09-19T11:46:06;6.70;;;2.83;;
3597;SDS011;1813;52.016;8.714;2023-09-19T11:48:40;9.70;;;3.00;;
3597;SDS011;1813;52.016;8.714;2023-09-19T11:51:15;11.83;;;3.60;;
3597;SDS011;1813;52.016;8.714;2023-09-19T11:53:54;9.63;;;3.60;;
3597;SDS011;1813;52.016;8.714;2023-09-19T11:56:30;8.27;;;3.57;;
3597;SDS011;1813;52.016;8.714;2023-09-19T11:59:07;8.60;;;3.20;;
3597;SDS011;1813;52.016;8.714;2023-09-19T12:01:42;11.57;;;3.10;;
3597;SDS011;1813;52.016;8.714;2023-09-19T12:04:34;8.53;;;3.07;;
3597;SDS011;1813;52.016;8.714;2023-09-19T12:07:10;4.90;;;2.60;;
3597;SDS011;1813;52.016;8.714;2023-09-19T12:09:46;9.97;;;3.60;;
3597;SDS011;1813;52.016;8.714;2023-09-19T12:12:22;8.23;;;3.10;;
3597;SDS011;1813;52.016;8.714;2023-09-19T12:14:59;8.47;;;2.90;;
3597;SDS011;1813;52.016;8.714;2023-09-19T12:17:37;14.43;;;2.90;;
3597;SDS011;1813;52.016;8.714;2023-09-19T12:20:13;9.23;;;3.30;;
3597;SDS011;1813;52.016;8.714;2023-09-19T12:22:47;8.03;;;3.53;;
3597;SDS011;1813;52.016;8.714;2023-09-19T12:25:21;11.27;;;3.37;;
3597;SDS011;1813;52.016;8.714;2023-09-19T12:27:55;9.70;;;3.53;;
3597;SDS011;1813;52.016;8.714;2023-09-19T12:30:36;10.20;;;3.57;;
3597;SDS011;1813;52.016;8.714;2023-09-19T12:33:20;12.23;;;3.20;;
3597;SDS011;1813;52.016;8.714;2023-09-19T12:35:56;6.50;;;3.07;;
3597;SDS011;1813;52.016;8.714;2023-09-19T12:38:30;9.20;;;3.40;;
3597;SDS011;1813;52.016;8.714;2023-09-19T12:41:05;10.20;;;3.27;;
3597;SDS011;1813;52.016;8.714;2023-09-19T12:43:40;9.43;;;2.90;;
3597;SDS011;1813;52.016;8.714;2023-09-19T12:46:19;8.50;;;3.13;;
3597;SDS011;1813;52.016;8.714;2023-09-19T12:51:51;5.47;;;3.03;;
3597;SDS011;1813;52.016;8.714;2023-09-19T12:54:37;13.50;;;3.50;;
3597;SDS011;1813;52.016;8.714;2023-09-19T12:57:22;11.40;;;3.30;;
3597;SDS011;1813;52.016;8.714;2023-09-19T12:59:57;7.50;;;2.90;;
3597;SDS011;1813;52.016;8.714;2023-09-19T13:02:33;11.97;;;3.30;;
3597;SDS011;1813;52.016;8.714;2023-09-19T13:05:07;10.23;;;2.67;;
3597;SDS011;1813;52.016;8.714;2023-09-19T13:07:41;9.60;;;3.00;;
3597;SDS011;1813;52.016;8.714;2023-09-19T13:10:17;9.83;;;3.07;;
3597;SDS011;1813;52.016;8.714;2023-09-19T13:12:54;5.30;;;2.40;;
3597;SDS011;1813;52.016;8.714;2023-09-19T13:15:28;9.67;;;3.10;;
3597;SDS011;1813;52.016;8.714;2023-09-19T13:18:24;6.30;;;2.87;;
3597;SDS011;1813;52.016;8.714;2023-09-19T13:21:06;9.83;;;2.97;;
3597;SDS011;1813;52.016;8.714;2023-09-19T13:23:42;9.97;;;3.57;;
3597;SDS011;1813;52.016;8.714;2023-09-19T13:26:16;8.17;;;3.20;;
3597;SDS011;1813;52.016;8.714;2023-09-19T13:28:50;9.90;;;2.97;;
3597;SDS011;1813;52.016;8.714;2023-09-19T13:31:24;8.60;;;3.00;;
3597;SDS011;1813;52.016;8.714;2023-09-19T13:34:00;6.20;;;2.50;;
3597;SDS011;1813;52.016;8.714;2023-09-19T13:36:34;16.67;;;2.90;;
3597;SDS011;1813;52.016;8.714;2023-09-19T13:39:08;6.77;;;2.60;;
3597;SDS011;1813;52.016;8.714;2023-09-19T13:41:44;14.33;;;2.83;;
3597;SDS011;1813;52.016;8.714;2023-09-19T13:44:18;6.00;;;2.70;;
3597;SDS011;1813;52.016;8.714;2023-09-19T13:46:52;5.63;;;2.50;;
3597;SDS011;1813;52.016;8.714;2023-09-19T13:49:29;11.23;;;2.63;;
3597;SDS011;1813;52.016;8.714;2023-09-19T13:52:04;11.20;;;2.60;;
3597;SDS011;1813;52.016;8.714;2023-09-19T13:54:38;4.90;;;2.70;;
3597;SDS011;1813;52.016;8.714;2023-09-19T13:57:12;7.10;;;2.67;;
3597;SDS011;1813;52.016;8.714;2023-09-19T13:59:46;6.20;;;2.37;;
3597;SDS011;1813;52.016;8.714;2023-09-19T14:02:20;5.60;;;2.30;;
3597;SDS011;1813;52.016;8.714;2023-09-19T14:04:57;6.90;;;2.80;;
3597;SDS011;1813;52.016;8.714;2023-09-19T14:07:31;10.30;;;2.80;;
3597;SDS011;1813;52.016;8.714;2023-09-19T14:10:07;9.47;;;2.60;;
3597;SDS011;1813;52.016;8.714;2023-09-19T14:12:44;6.37;;;2.30;;
3597;SDS011;1813;52.016;8.714;2023-09-19T14:15:18;5.33;;;2.20;;
3597;SDS011;1813;52.016;8.714;2023-09-19T14:17:59;6.50;;;2.80;;
3597;SDS011;1813;52.016;8.714;2023-09-19T14:20:37;5.43;;;2.60;;
3597;SDS011;1813;52.016;8.714;2023-09-19T14:23:12;8.53;;;2.87;;
3597;SDS011;1813;52.016;8.714;2023-09-19T14:25:46;7.43;;;2.23;;
3597;SDS011;1813;52.016;8.714;2023-09-19T14:28:19;3.53;;;2.10;;
3597;SDS011;1813;52.016;8.714;2023-09-19T14:30:55;2.70;;;2.40;;
3597;SDS011;1813;52.016;8.714;2023-09-19T14:33:30;5.30;;;2.30;;
3597;SDS011;1813;52.016;8.714;2023-09-19T14:36:08;6.53;;;2.50;;
3597;SDS011;1813;52.016;8.714;2023-09-19T14:38:44;5.47;;;2.70;;
3597;SDS011;1813;52.016;8.714;2023-09-19T14:41:18;6.33;;;2.63;;
3597;SDS011;1813;52.016;8.714;2023-09-19T14:43:51;7.00;;;2.50;;
3597;SDS011;1813;52.016;8.714;2023-09-19T14:46:25;5.07;;;2.20;;
3597;SDS011;1813;52.016;8.714;2023-09-19T14:48:59;4.20;;;2.00;;
3597;SDS011;1813;52.016;8.714;2023-09-19T14:51:37;5.17;;;2.77;;
3597;SDS011;1813;52.016;8.714;2023-09-19T14:54:14;6.63;;;2.83;;
3597;SDS011;1813;52.016;8.714;2023-09-19T14:56:49;7.00;;;2.17;;
3597;SDS011;1813;52.016;8.714;2023-09-19T14:59:34;6.03;;;2.60;;
3597;SDS011;1813;52.016;8.714;2023-09-19T15:02:08;2.53;;;2.20;;
3597;SDS011;1813;52.016;8.714;2023-09-19T15:04:43;5.70;;;2.13;;
3597;SDS011;1813;52.016;8.714;2023-09-19T15:07:20;4.40;;;2.73;;
3597;SDS011;1813;52.016;8.714;2023-09-19T15:09:54;5.20;;;2.77;;
3597;SDS011;1813;52.016;8.714;2023-09-19T15:12:28;6.77;;;2.80;;
3597;SDS011;1813;52.016;8.714;2023-09-19T15:15:03;8.83;;;2.60;;
3597;SDS011;1813;52.016;8.714;2023-09-19T15:17:39;5.30;;;2.50;;
3597;SDS011;1813;52.016;8.714;2023-09-19T15:20:13;7.80;;;2.70;;
3597;SDS011;1813;52.016;8.714;2023-09-19T15:22:50;5.50;;;2.50;;
3597;SDS011;1813;52.016;8.714;2023-09-19T15:25:25;6.30;;;2.33;;
3597;SDS011;1813;52.016;8.714;2023-09-19T15:27:58;5.90;;;2.90;;
3597;SDS011;1813;52.016;8.714;2023-09-19T15:30:38;10.30;;;3.10;;
3597;SDS011;1813;52.016;8.714;2023-09-19T15:33:11;5.83;;;2.57;;
3597;SDS011;1813;52.016;8.714;2023-09-19T15:35:45;6.77;;;2.80;;
3597;SDS011;1813;52.016;8.714;2023-09-19T15:38:22;7.83;;;2.63;;
3597;SDS011;1813;52.016;8.714;2023-09-19T15:40:55;7.23;;;2.60;;
3597;SDS011;1813;52.016;8.714;2023-09-19T15:43:30;7.97;;;2.83;;
3597;SDS011;1813;52.016;8.714;2023-09-19T15:46:05;3.50;;;2.40;;
3597;SDS011;1813;52.016;8.714;2023-09-19T15:48:38;12.83;;;2.70;;
3597;SDS011;1813;52.016;8.714;2023-09-19T15:51:12;8.63;;;2.63;;
3597;SDS011;1813;52.016;8.714;2023-09-19T15:53:49;3.83;;;2.33;;
3597;SDS011;1813;52.016;8.714;2023-09-19T15:56:24;7.07;;;2.37;;
3597;SDS011;1813;52.016;8.714;2023-09-19T15:58:59;8.10;;;2.57;;
3597;SDS011;1813;52.016;8.714;2023-09-19T16:01:33;5.43;;;2.60;;
3597;SDS011;1813;52.016;8.714;2023-09-19T16:04:06;4.77;;;2.37;;
3597;SDS011;1813;52.016;8.714;2023-09-19T16:06:42;6.27;;;2.60;;
3597;SDS011;1813;52.016;8.714;2023-09-19T16:09:19;7.10;;;2.80;;
3597;SDS011;1813;52.016;8.714;2023-09-19T16:11:53;3.47;;;1.87;;
3597;SDS011;1813;52.016;8.714;2023-09-19T16:14:26;5.47;;;2.20;;
3597;SDS011;1813;52.016;8.714;2023-09-19T16:17:01;3.53;;;1.90;;
3597;SDS011;1813;52.016;8.714;2023-09-19T16:19:38;5.87;;;2.10;;